Time;durP1;ratioP1;P1;durP2;ratioP2;P2;SDS_P1;SDS_P2;PMS_P1;PMS_P2;Temp;Humidity;BMP_temperature;BMP_pressure;BME280_temperature;BME280_humidity;BME280_pressure;Samples;Min_cycle;Max_cycle;Signal;HPM_P1;HPM_P2
2023/03/06 00:01:58;;;;;;;12.47;11.13;;;;;;;6.87;62.56;98953.97;5074146;28;20248;-69
2023/03/06 00:04:24;;;;;;;14.57;12.43;;;;;;;6.88;62.82;98949.50;5073839;28;20627;-69
2023/03/06 00:06:52;;;;;;;15.00;11.70;;;;;;;6.92;62.33;98950.75;5074109;28;20191;-69
2023/03/06 00:09:20;;;;;;;12.83;11.13;;;;;;;6.88;62.92;98949.50;5073717;28;20198;-69
2023/03/06 00:11:47;;;;;;;15.20;10.97;;;;;;;6.86;62.42;98954.16;5054929;28;20258;-70
2023/03/06 00:14:14;;;;;;;13.17;11.53;;;;;;;6.61;62.10;98952.84;5054082;28;20256;-70
2023/03/06 00:16:41;;;;;;;13.13;11.27;;;;;;;6.55;62.48;98958.81;5053452;28;20203;-70
2023/03/06 00:19:08;;;;;;;12.53;11.33;;;;;;;6.32;63.01;98947.56;5063372;28;20188;-69
2023/03/06 00:21:34;;;;;;;13.00;10.97;;;;;;;6.48;63.05;98952.63;5073464;28;20192;-69
2023/03/06 00:24:01;;;;;;;11.03;9.97;;;;;;;6.43;62.14;98955.00;5073484;28;20192;-68
2023/03/06 00:26:29;;;;;;;11.10;9.90;;;;;;;6.38;62.44;98958.22;5073279;28;20193;-69
2023/03/06 00:28:56;;;;;;;12.67;11.37;;;;;;;6.23;62.32;98914.38;5065187;28;20193;-69
2023/03/06 00:31:23;;;;;;;15.70;11.40;;;;;;;6.45;62.20;98958.31;5053255;28;20201;-69
2023/03/06 00:33:49;;;;;;;11.20;10.23;;;;;;;6.33;62.50;98946.56;5052298;28;20288;-69
2023/03/06 00:36:16;;;;;;;11.63;10.57;;;;;;;6.41;62.31;98964.94;5053360;28;20250;-68
2023/03/06 00:38:43;;;;;;;12.37;11.10;;;;;;;6.34;63.33;98961.38;5053500;28;20198;-69
2023/03/06 00:41:11;;;;;;;12.47;10.90;;;;;;;6.32;62.93;98973.94;5053138;28;20695;-69
2023/03/06 00:43:39;;;;;;;12.13;10.93;;;;;;;6.41;62.82;98970.22;5053502;28;20248;-69
2023/03/06 00:46:06;;;;;;;13.00;11.40;;;;;;;6.27;63.20;98971.00;5052873;28;20189;-68
2023/03/06 00:48:33;;;;;;;12.60;10.93;;;;;;;6.26;62.68;98970.22;5053271;28;20200;-70
2023/03/06 00:51:00;;;;;;;13.37;11.30;;;;;;;6.31;62.74;98964.38;5072185;28;20740;-69
2023/03/06 00:53:26;;;;;;;12.23;10.30;;;;;;;6.34;62.33;98977.22;5072824;28;20227;-69
2023/03/06 00:55:53;;;;;;;12.50;10.50;;;;;;;6.33;62.95;98972.94;5072988;28;20351;-69
2023/03/06 00:58:20;;;;;;;12.50;10.50;;;;;;;6.31;63.22;98967.84;5065940;28;20231;-69
2023/03/06 01:00:48;;;;;;;13.87;11.50;;;;;;;6.20;63.13;98960.38;5069806;28;20720;-69
2023/03/06 01:03:15;;;;;;;11.30;10.33;;;;;;;6.25;63.51;98968.56;5072195;28;20197;-69
2023/03/06 01:05:42;;;;;;;12.63;10.30;;;;;;;6.23;63.46;98972.38;5072987;28;20199;-69
2023/03/06 01:08:08;;;;;;;15.03;10.97;;;;;;;6.25;63.03;98965.13;5072532;28;20722;-69
2023/03/06 01:10:39;;;;;;;12.50;11.20;;;;;;;6.13;62.94;98948.09;5072475;28;20200;-69
2023/03/06 01:13:06;;;;;;;12.50;10.50;;;;;;;6.23;62.96;98965.28;5052312;28;20244;-69
2023/03/06 01:15:32;;;;;;;12.33;11.00;;;;;;;6.28;62.62;98967.41;5052770;28;20312;-69
2023/03/06 01:18:01;;;;;;;12.13;10.90;;;;;;;6.25;63.23;98967.75;5052775;28;20262;-69
2023/03/06 01:20:28;;;;;;;12.17;10.87;;;;;;;6.22;62.97;98963.66;5052486;28;20220;-70
2023/03/06 01:22:55;;;;;;;11.73;10.47;;;;;;;6.34;62.64;98971.94;5052695;28;20261;-70
2023/03/06 01:25:22;;;;;;;13.37;10.37;;;;;;;6.29;62.60;98974.31;5071112;28;20740;-69
2023/03/06 01:27:49;;;;;;;12.53;11.23;;;;;;;6.26;62.95;98975.50;5072434;28;20188;-69
2023/03/06 01:30:17;;;;;;;12.60;11.30;;;;;;;6.29;62.44;98976.94;5072590;28;20197;-70
2023/03/06 01:32:43;;;;;;;13.40;10.53;;;;;;;6.39;62.28;98970.41;5072036;28;20246;-70
2023/03/06 01:35:12;;;;;;;11.93;10.67;;;;;;;6.28;62.77;98972.69;5071831;28;20267;-70
2023/03/06 01:37:40;;;;;;;10.93;9.83;;;;;;;6.29;63.61;98958.47;5072318;28;20195;-70
2023/03/06 01:40:09;;;;;;;10.87;9.80;;;;;;;6.19;63.38;98960.56;5072399;28;20228;-69
2023/03/06 01:42:36;;;;;;;11.17;10.03;;;;;;;6.20;63.70;98964.84;5070269;28;20260;-69
2023/03/06 01:45:07;;;;;;;12.80;11.47;;;;;;;6.27;63.86;98965.75;5072024;28;20197;-70
2023/03/06 01:47:34;;;;;;;13.20;11.07;;;;;;;6.17;64.35;98970.47;5071097;28;20248;-69
2023/03/06 01:50:02;;;;;;;11.83;10.67;;;;;;;6.17;63.96;98975.75;5070239;28;20242;-70
2023/03/06 01:52:36;;;;;;;11.90;10.70;;;;;;;6.17;64.12;98981.03;5072077;28;20201;-69
2023/03/06 01:55:06;;;;;;;11.63;10.37;;;;;;;6.21;63.93;98977.03;5072327;28;20214;-69
2023/03/06 01:57:35;;;;;;;11.63;10.43;;;;;;;6.24;63.92;98976.66;5062371;28;20199;-68
2023/03/06 02:00:09;;;;;;;12.87;11.00;;;;;;;6.23;63.63;98975.84;5052525;28;20235;-69
2023/03/06 02:02:36;;;;;;;11.80;10.63;;;;;;;6.24;63.91;98981.94;5050239;28;20204;-69
2023/03/06 02:05:05;;;;;;;12.93;11.47;;;;;;;6.32;63.83;98984.50;5050916;28;20250;-69
2023/03/06 02:07:34;;;;;;;12.37;11.07;;;;;;;6.18;64.62;98983.50;5051908;28;20200;-69
2023/03/06 02:10:00;;;;;;;16.77;11.30;;;;;;;6.21;64.63;98984.94;5051691;28;20204;-68
2023/03/06 02:12:27;;;;;;;14.37;11.67;;;;;;;6.24;64.93;98989.84;5051875;28;20359;-70
2023/03/06 02:14:54;;;;;;;14.97;10.83;;;;;;;6.29;64.76;98995.41;5058110;28;20193;-69
2023/03/06 02:17:22;;;;;;;13.37;12.07;;;;;;;6.14;64.95;98997.19;5062429;28;20662;-70
2023/03/06 02:19:58;;;;;;;12.43;11.20;;;;;;;5.98;64.82;98986.81;5078748;28;20203;-70
2023/03/06 02:22:31;;;;;;;12.37;11.17;;;;;;;5.95;65.16;99003.00;5078380;28;20184;-69
2023/03/06 02:25:07;;;;;;;11.90;10.67;;;;;;;5.93;65.60;98997.06;5078292;28;20633;-69
2023/03/06 02:27:36;;;;;;;12.30;10.63;;;;;;;5.88;65.32;98999.44;5058465;28;20579;-70
2023/03/06 02:30:06;;;;;;;12.60;11.30;;;;;;;5.88;65.46;98994.16;5058468;28;20266;-70
2023/03/06 02:32:33;;;;;;;12.53;11.23;;;;;;;5.99;65.02;99004.25;5058064;28;20196;-69
2023/03/06 02:35:00;;;;;;;13.10;11.73;;;;;;;5.95;65.71;99010.91;5058290;28;20250;-68
2023/03/06 02:37:28;;;;;;;14.53;11.37;;;;;;;5.85;66.35;99002.41;5075907;28;20729;-69
2023/03/06 02:40:03;;;;;;;12.73;11.50;;;;;;;5.76;66.58;99005.09;5078372;28;20262;-69
2023/03/06 02:42:30;;;;;;;16.30;12.00;;;;;;;5.71;66.69;99007.44;5078007;28;20179;-69
2023/03/06 02:45:02;;;;;;;13.33;11.33;;;;;;;5.52;67.07;99002.63;5078334;28;20209;-69
2023/03/06 02:47:29;;;;;;;14.10;11.67;;;;;;;5.61;67.17;99012.09;5077102;28;20254;-69
2023/03/06 02:49:55;;;;;;;12.30;11.20;;;;;;;5.52;67.15;99013.16;5078429;28;20196;-69
2023/03/06 02:52:22;;;;;;;12.40;11.10;;;;;;;5.61;67.33;99003.41;5078326;28;20200;-69
2023/03/06 02:54:49;;;;;;;16.77;11.87;;;;;;;5.52;67.61;99002.63;5078401;28;20278;-69
2023/03/06 02:57:16;;;;;;;13.73;11.80;;;;;;;5.56;67.38;99011.81;5076902;28;20732;-69
2023/03/06 02:59:42;;;;;;;13.90;11.37;;;;;;;5.70;67.42;99010.25;5059645;28;20275;-69
2023/03/06 03:02:11;;;;;;;13.33;11.13;;;;;;;5.76;67.25;99018.25;5058096;28;20615;-70
2023/03/06 03:04:37;;;;;;;12.27;10.90;;;;;;;5.79;66.08;99006.53;5058374;28;20662;-70
2023/03/06 03:07:04;;;;;;;13.03;11.63;;;;;;;5.78;66.38;99013.66;5058531;28;20193;-69
2023/03/06 03:09:35;;;;;;;13.30;11.90;;;;;;;5.89;66.92;99012.44;5058346;28;20687;-69
2023/03/06 03:12:03;;;;;;;13.07;11.40;;;;;;;5.97;66.32;99014.16;5058014;28;20200;-69
2023/03/06 03:14:30;;;;;;;13.07;11.77;;;;;;;5.96;66.25;99020.44;5056801;28;20749;-69
2023/03/06 03:16:56;;;;;;;12.63;11.37;;;;;;;5.70;66.20;98995.25;5057798;28;20668;-69
2023/03/06 03:19:24;;;;;;;14.63;11.33;;;;;;;5.75;66.41;99006.09;5071445;28;20251;-70
2023/03/06 03:21:51;;;;;;;14.97;11.47;;;;;;;5.83;66.68;99010.50;5077782;28;20295;-70
2023/03/06 03:24:18;;;;;;;15.13;11.70;;;;;;;5.85;66.86;99007.69;5077255;28;20199;-70
2023/03/06 03:26:45;;;;;;;12.50;10.80;;;;;;;5.69;67.18;99009.41;5073901;28;20261;-69
2023/03/06 03:29:12;;;;;;;13.50;10.53;;;;;;;5.52;67.50;99005.28;5074639;28;20200;-69
2023/03/06 03:31:38;;;;;;;14.27;11.37;;;;;;;5.32;68.16;99004.09;5054021;28;20668;-69
2023/03/06 03:34:05;;;;;;;14.07;12.07;;;;;;;5.25;68.53;98990.00;5054365;28;20192;-69
2023/03/06 03:36:33;;;;;;;12.97;10.33;;;;;;;5.35;68.54;99010.81;5054330;28;20661;-69
2023/03/06 03:39:00;;;;;;;15.53;11.47;;;;;;;5.25;69.02;99011.06;5054287;28;20200;-69
2023/03/06 03:41:27;;;;;;;15.57;11.63;;;;;;;5.33;68.69;99013.66;5058836;28;20220;-68
2023/03/06 03:43:53;;;;;;;13.27;11.80;;;;;;;5.35;68.95;99005.56;5054475;28;20553;-68
2023/03/06 03:46:20;;;;;;;14.23;11.60;;;;;;;5.46;69.17;99003.34;5054439;28;20201;-69
2023/03/06 03:48:47;;;;;;;15.27;12.00;;;;;;;5.56;69.17;99009.19;5054434;28;20290;-69
2023/03/06 03:51:15;;;;;;;12.57;10.73;;;;;;;5.54;68.34;98995.41;5056876;28;20192;-69
2023/03/06 03:53:44;;;;;;;12.43;11.10;;;;;;;5.68;68.29;99006.97;5074279;28;20277;-69
2023/03/06 03:56:11;;;;;;;13.37;11.93;;;;;;;5.72;68.08;99001.16;5073947;28;20222;-69
2023/03/06 03:58:37;;;;;;;21.53;13.23;;;;;;;5.79;67.97;99011.81;5064762;28;20290;-69
2023/03/06 04:01:04;;;;;;;21.57;13.23;;;;;;;5.84;67.80;99006.06;5054195;28;20224;-69
2023/03/06 04:03:31;;;;;;;18.50;13.17;;;;;;;5.78;67.50;99004.91;5057661;28;20192;-69
2023/03/06 04:05:58;;;;;;;21.17;12.60;;;;;;;5.69;67.04;99006.78;5074114;28;20187;-69
2023/03/06 04:08:25;;;;;;;13.87;11.97;;;;;;;5.67;67.11;99010.59;5072941;28;20195;-69
2023/03/06 04:10:54;;;;;;;15.00;11.77;;;;;;;5.56;66.79;99013.66;5069261;28;20242;-69
2023/03/06 04:13:22;;;;;;;13.10;11.87;;;;;;;5.51;67.08;99019.44;5033970;28;20204;-69
2023/03/06 04:15:50;;;;;;;13.10;11.67;;;;;;;5.50;66.43;99030.16;5036822;28;20289;-70
2023/03/06 04:18:18;;;;;;;16.00;11.97;;;;;;;5.39;66.33;99028.75;5053689;28;20193;-70
2023/03/06 04:20:45;;;;;;;14.23;11.93;;;;;;;5.41;66.28;99029.41;5053817;28;20220;-70
2023/03/06 04:23:12;;;;;;;12.93;10.87;;;;;;;5.55;66.00;99031.28;5062907;28;20602;-69
2023/03/06 04:25:40;;;;;;;18.67;12.47;;;;;;;5.48;66.13;99035.59;5073769;28;20249;-70
2023/03/06 04:28:09;;;;;;;13.43;12.03;;;;;;;5.39;66.97;99039.28;5068934;28;20672;-69
2023/03/06 04:30:35;;;;;;;17.77;11.80;;;;;;;5.39;67.22;99039.28;5053547;28;20205;-69
2023/03/06 04:33:02;;;;;;;12.60;11.03;;;;;;;5.31;67.82;99036.69;5053359;28;20192;-69
2023/03/06 04:35:29;;;;;;;14.10;11.83;;;;;;;5.25;67.81;99037.41;5053452;28;20200;-69
2023/03/06 04:37:56;;;;;;;14.07;11.33;;;;;;;5.07;68.13;99038.66;5053317;28;20271;-68
2023/03/06 04:40:27;;;;;;;19.00;12.60;;;;;;;5.02;68.31;99040.97;5058213;28;20245;-69
2023/03/06 04:42:55;;;;;;;17.53;12.13;;;;;;;5.06;68.49;99042.25;5073604;28;20612;-71
2023/03/06 04:45:23;;;;;;;14.20;12.30;;;;;;;5.26;68.46;99049.56;5073188;28;20206;-70
2023/03/06 04:47:50;;;;;;;20.43;11.80;;;;;;;5.31;68.15;99054.31;5072934;28;20336;-68
2023/03/06 04:50:18;;;;;;;20.30;13.43;;;;;;;5.28;68.79;99052.81;5072893;28;20199;-69
2023/03/06 04:52:45;;;;;;;15.60;12.40;;;;;;;5.24;68.50;99046.25;5071784;28;20195;-69
2023/03/06 04:55:14;;;;;;;18.70;12.83;;;;;;;5.18;69.24;99057.50;5072860;28;20608;-70
2023/03/06 04:57:42;;;;;;;21.50;13.23;;;;;;;5.14;69.24;99058.84;5071267;28;20196;-70
2023/03/06 05:00:13;;;;;;;13.63;12.17;;;;;;;5.17;69.36;99050.59;5052794;28;20235;-69
2023/03/06 05:02:42;;;;;;;14.17;12.30;;;;;;;5.06;69.47;99043.09;5052472;28;20220;-69
2023/03/06 05:05:09;;;;;;;17.57;12.00;;;;;;;5.02;69.87;99051.47;5052033;28;20196;-69
2023/03/06 05:07:36;;;;;;;20.70;13.13;;;;;;;5.11;69.75;99053.91;5052729;28;20242;-68
2023/03/06 05:10:03;;;;;;;23.97;13.33;;;;;;;5.22;69.63;99058.78;5052605;28;20196;-69
2023/03/06 05:12:30;;;;;;;25.67;14.70;;;;;;;5.33;69.46;99076.00;5070852;28;20196;-69
2023/03/06 05:14:57;;;;;;;41.20;15.53;;;;;;;5.35;69.96;99066.94;5072192;28;20188;-69
2023/03/06 05:17:24;;;;;;;18.67;13.60;;;;;;;5.62;69.51;99069.09;5071982;28;20621;-69
2023/03/06 05:19:52;;;;;;;21.97;13.77;;;;;;;5.95;67.89;99076.81;5071698;28;20736;-69
2023/03/06 05:22:19;;;;;;;19.80;14.47;;;;;;;6.18;68.20;99072.31;5068436;28;20213;-69
2023/03/06 05:24:46;;;;;;;30.47;14.70;;;;;;;6.48;66.96;99080.09;5052265;28;20197;-70
2023/03/06 05:27:12;;;;;;;24.87;13.23;;;;;;;6.80;65.48;99094.75;5051729;28;20725;-69
2023/03/06 05:29:39;;;;;;;22.50;12.93;;;;;;;7.16;65.53;99095.66;5051766;28;20266;-69
2023/03/06 05:32:06;;;;;;;27.70;14.07;;;;;;;7.51;63.42;99102.81;5052181;28;20231;-68
2023/03/06 05:34:33;;;;;;;13.93;12.13;;;;;;;7.71;61.94;99111.75;5051969;28;20188;-69
2023/03/06 05:37:01;;;;;;;15.83;12.63;;;;;;;7.81;60.63;99118.41;5051989;28;20196;-69
2023/03/06 05:39:28;;;;;;;16.20;12.50;;;;;;;7.83;60.96;99118.19;5052039;28;20287;-69
2023/03/06 05:41:55;;;;;;;25.87;12.47;;;;;;;7.77;60.89;99121.59;5052041;28;20220;-69
2023/03/06 05:44:22;;;;;;;15.23;12.13;;;;;;;7.78;61.47;99117.94;5051856;28;20266;-69
2023/03/06 05:46:49;;;;;;;21.43;12.83;;;;;;;7.92;60.89;99120.53;5060026;28;20667;-69
2023/03/06 05:49:16;;;;;;;13.10;11.77;;;;;;;8.11;60.44;99127.00;5071014;28;20637;-69
2023/03/06 05:51:43;;;;;;;38.57;13.27;;;;;;;8.30;59.18;99135.19;5072257;28;20303;-69
2023/03/06 05:54:11;;;;;;;21.97;10.93;;;;;;;8.43;58.69;99134.47;5071903;28;20195;-70
2023/03/06 05:56:37;;;;;;;14.37;12.20;;;;;;;8.48;59.26;99142.63;5071837;28;20196;-69
2023/03/06 05:59:04;;;;;;;13.53;11.60;;;;;;;8.60;58.06;99143.75;5057719;28;20273;-69
2023/03/06 06:01:31;;;;;;;16.57;11.93;;;;;;;8.84;57.28;99149.47;5071368;28;20215;-70
2023/03/06 06:03:57;;;;;;;30.23;12.43;;;;;;;9.08;56.84;99145.53;5071391;28;20192;-69
2023/03/06 06:06:24;;;;;;;14.90;12.07;;;;;;;9.18;56.23;99148.63;5071230;28;20191;-68
2023/03/06 06:08:51;;;;;;;30.77;12.47;;;;;;;9.48;55.13;99164.09;5071142;28;20332;-69
2023/03/06 06:11:19;;;;;;;37.97;13.53;;;;;;;9.62;55.43;99143.75;5062047;28;20196;-69
2023/03/06 06:13:48;;;;;;;22.40;14.77;;;;;;;9.88;54.26;99159.75;5072225;28;20195;-69
2023/03/06 06:16:16;;;;;;;34.77;25.30;;;;;;;10.15;53.30;99161.50;5071826;28;20191;-69
2023/03/06 06:18:43;;;;;;;46.93;24.70;;;;;;;10.28;53.99;99157.03;5071994;28;20202;-70
2023/03/06 06:21:12;;;;;;;27.27;17.10;;;;;;;10.50;52.19;99157.66;5071850;28;20227;-68
2023/03/06 06:23:38;;;;;;;24.33;14.87;;;;;;;10.70;51.43;99155.81;5056519;28;20254;-69
2023/03/06 06:26:08;;;;;;;27.70;13.57;;;;;;;10.84;50.78;99152.13;5051671;28;20188;-69
2023/03/06 06:28:36;;;;;;;22.43;13.27;;;;;;;11.03;50.77;99161.94;5051473;28;20215;-69
2023/03/06 06:31:08;;;;;;;26.20;14.00;;;;;;;11.32;50.57;99161.47;5051514;28;20204;-68
2023/03/06 06:33:35;;;;;;;17.97;13.03;;;;;;;11.58;48.79;99161.38;5051267;28;20760;-71
2023/03/06 06:36:02;;;;;;;52.53;14.80;;;;;;;11.86;48.59;99158.41;5071217;28;20256;-68
2023/03/06 06:38:28;;;;;;;22.60;11.93;;;;;;;12.31;46.85;99168.81;5071108;28;20194;-68
2023/03/06 06:40:55;;;;;;;14.07;11.87;;;;;;;12.50;44.71;99167.84;5070957;28;20205;-68
2023/03/06 06:43:22;;;;;;;16.63;11.20;;;;;;;12.49;43.83;99166.22;5059192;28;20198;-68
2023/03/06 06:45:50;;;;;;;19.97;10.40;;;;;;;12.67;42.08;99171.63;5050754;28;20194;-68
2023/03/06 06:48:17;;;;;;;14.30;10.60;;;;;;;12.58;42.23;99174.78;5051052;28;20201;-68
2023/03/06 06:50:43;;;;;;;12.13;10.93;;;;;;;12.53;43.30;99164.75;5050450;28;20199;-69
2023/03/06 06:53:10;;;;;;;21.67;10.50;;;;;;;12.91;42.95;99170.78;5051264;28;20232;-71
2023/03/06 06:55:37;;;;;;;42.77;10.70;;;;;;;13.29;43.26;99166.16;5050677;28;20697;-70
2023/03/06 06:58:04;;;;;;;12.03;9.50;;;;;;;13.63;43.10;99170.91;5047038;28;20199;-69
2023/03/06 07:00:31;;;;;;;10.30;9.23;;;;;;;13.97;44.46;99161.47;5051755;28;20188;-68
2023/03/06 07:02:59;;;;;;;12.07;10.33;;;;;;;14.20;40.47;99173.03;5053959;28;20655;-71
2023/03/06 07:05:25;;;;;;;12.47;9.67;;;;;;;14.02;41.13;99164.25;5064165;28;20250;-68
2023/03/06 07:07:52;;;;;;;13.47;10.90;;;;;;;13.95;40.39;99172.38;5065730;28;20265;-70
2023/03/06 07:10:19;;;;;;;11.33;9.40;;;;;;;14.29;48.19;99155.69;5051578;28;20254;-68
2023/03/06 07:12:46;;;;;;;20.13;9.97;;;;;;;14.83;42.34;99166.13;5053588;28;20256;-71
2023/03/06 07:15:14;;;;;;;23.00;10.20;;;;;;;15.31;43.92;99165.91;5049344;28;20205;-75
2023/03/06 07:17:40;;;;;;;11.37;10.17;;;;;;;15.30;44.47;99154.41;5052109;28;20201;-71
2023/03/06 07:20:11;;;;;;;18.40;10.80;;;;;;;15.23;37.67;99175.09;5054268;28;20197;-72
2023/03/06 07:22:38;;;;;;;11.47;9.87;;;;;;;15.27;37.54;99181.63;5054109;28;20203;-72
2023/03/06 07:25:05;;;;;;;11.80;10.37;;;;;;;15.06;38.75;99184.88;5053980;28;20251;-75
2023/03/06 07:27:32;;;;;;;12.80;10.07;;;;;;;14.90;39.17;99184.72;5053933;28;20657;-68
2023/03/06 07:29:59;;;;;;;11.87;10.87;;;;;;;14.98;38.71;99182.56;5054202;28;20189;-69
2023/03/06 07:32:25;;;;;;;12.77;9.70;;;;;;;15.28;46.60;99174.41;5055566;28;20624;-69
2023/03/06 07:34:52;;;;;;;12.83;10.27;;;;;;;15.42;39.23;99187.34;5053498;28;20189;-70
2023/03/06 07:37:21;;;;;;;14.67;10.83;;;;;;;16.20;42.72;99178.78;5053894;28;20189;-70
2023/03/06 07:39:47;;;;;;;12.20;10.93;;;;;;;16.84;37.42;99192.56;5054119;28;20193;-70
2023/03/06 07:42:15;;;;;;;12.40;11.30;;;;;;;16.58;35.60;99192.38;5053865;28;20224;-69
2023/03/06 07:44:42;;;;;;;36.87;12.43;;;;;;;16.65;42.47;99179.63;5053913;28;20185;-68
2023/03/06 07:47:11;;;;;;;22.93;11.90;;;;;;;16.32;36.37;99192.91;5053295;28;20201;-71
2023/03/06 07:49:38;;;;;;;11.63;10.47;;;;;;;16.13;35.53;99186.13;5054715;28;20196;-73
2023/03/06 07:52:05;;;;;;;25.80;11.00;;;;;;;16.06;39.86;99183.59;5053871;28;20258;-70
2023/03/06 07:54:34;;;;;;;17.03;11.27;;;;;;;16.65;36.40;99191.16;5048699;28;20200;-76
2023/03/06 07:57:00;;;;;;;12.67;10.40;;;;;;;17.32;36.15;99186.59;5052739;28;20195;-69
2023/03/06 07:59:27;;;;;;;20.33;11.47;;;;;;;17.12;34.94;99187.09;5051569;28;20221;-75
2023/03/06 08:01:56;;;;;;;14.97;11.20;;;;;;;16.96;39.87;99181.72;5051565;28;20232;-72
2023/03/06 08:04:23;;;;;;;13.17;11.87;;;;;;;17.46;34.87;99191.38;5052586;28;20192;-72
2023/03/06 08:06:50;;;;;;;44.40;13.37;;;;;;;17.72;34.94;99195.25;5050460;28;20664;-71
2023/03/06 08:09:16;;;;;;;15.23;10.77;;;;;;;17.98;40.41;99186.41;5049441;28;20196;-74
2023/03/06 08:11:44;;;;;;;18.97;11.13;;;;;;;18.63;36.98;99195.22;5050941;28;20276;-71
2023/03/06 08:14:11;;;;;;;55.83;14.27;;;;;;;19.05;32.65;99194.25;5051847;28;20288;-74
2023/03/06 08:16:38;;;;;;;12.07;10.10;;;;;;;18.71;35.53;99187.47;5052830;28;20251;-71
2023/03/06 08:19:04;;;;;;;17.60;11.37;;;;;;;18.98;31.46;99199.03;5050222;28;20196;-68
2023/03/06 08:21:31;;;;;;;16.83;11.47;;;;;;;19.05;30.04;99199.63;5049738;28;20250;-68
2023/03/06 08:23:58;;;;;;;42.30;12.53;;;;;;;18.96;30.20;99194.97;5052211;28;20196;-69
2023/03/06 08:26:27;;;;;;;27.80;12.30;;;;;;;18.90;29.80;99190.59;5057191;28;20299;-69
2023/03/06 08:28:58;;;;;;;15.87;10.90;;;;;;;19.14;29.89;99183.78;5050038;28;20716;-70
2023/03/06 08:31:28;;;;;;;12.80;11.00;;;;;;;19.32;30.09;99175.34;5049752;28;20188;-69
2023/03/06 08:33:57;;;;;;;32.67;13.20;;;;;;;19.41;29.77;99168.41;5050133;28;20184;-70
2023/03/06 08:36:23;;;;;;;28.53;12.63;;;;;;;19.37;29.91;99167.28;5051209;28;20266;-68
2023/03/06 08:38:51;;;;;;;17.53;11.73;;;;;;;19.24;29.99;99165.06;5050774;28;20760;-71
2023/03/06 08:41:18;;;;;;;98.37;16.37;;;;;;;19.58;35.26;99151.00;5052660;28;20188;-71
2023/03/06 08:43:45;;;;;;;12.37;10.97;;;;;;;20.06;31.33;99155.22;5050285;28;20282;-69
2023/03/06 08:46:13;;;;;;;16.27;10.80;;;;;;;20.64;32.59;99160.22;5052431;28;20272;-70
2023/03/06 08:48:40;;;;;;;14.00;10.50;;;;;;;20.56;29.63;99166.13;5055357;28;20195;-72
2023/03/06 08:51:08;;;;;;;12.40;11.20;;;;;;;20.04;27.46;99138.47;5051685;28;20197;-74
2023/03/06 08:53:35;;;;;;;37.00;12.73;;;;;;;20.11;29.17;99157.94;5051255;28;20230;-70
2023/03/06 08:56:02;;;;;;;18.70;11.30;;;;;;;20.48;31.19;99151.31;5048350;28;20258;-72
2023/03/06 08:58:29;;;;;;;18.30;12.33;;;;;;;20.44;28.27;99149.38;5052747;28;20225;-69
2023/03/06 09:00:56;;;;;;;16.63;10.80;;;;;;;20.75;29.81;99145.66;5051420;28;20195;-70
2023/03/06 09:03:24;;;;;;;60.80;14.10;;;;;;;21.03;28.47;99147.81;5051304;28;20216;-70
2023/03/06 09:05:51;;;;;;;15.67;10.10;;;;;;;20.90;29.56;99137.53;5052031;28;20189;-71
2023/03/06 09:08:18;;;;;;;17.60;11.90;;;;;;;21.14;27.01;99141.31;5052039;28;20215;-71
2023/03/06 09:10:46;;;;;;;11.97;10.87;;;;;;;21.09;26.58;99135.94;5053844;28;20618;-68
2023/03/06 09:13:13;;;;;;;12.73;11.47;;;;;;;20.62;27.08;99135.38;5051767;28;20203;-70
2023/03/06 09:15:40;;;;;;;10.60;9.67;;;;;;;20.26;27.31;99128.34;5052983;28;20192;-69
2023/03/06 09:18:07;;;;;;;13.93;10.77;;;;;;;19.92;27.37;99136.03;5050943;28;20266;-68
2023/03/06 09:20:35;;;;;;;16.23;11.10;;;;;;;20.13;27.71;99128.81;5049332;28;20643;-70
2023/03/06 09:23:01;;;;;;;22.57;10.00;;;;;;;20.12;31.26;99113.72;5050659;28;20220;-74
2023/03/06 09:25:28;;;;;;;12.53;11.00;;;;;;;20.51;28.43;99117.56;5050294;28;20700;-69
2023/03/06 09:27:55;;;;;;;16.50;11.17;;;;;;;20.36;27.23;99129.16;5052592;28;20663;-69
2023/03/06 09:30:22;;;;;;;10.87;10.03;;;;;;;20.11;27.43;99122.91;5052244;28;20204;-69
2023/03/06 09:32:49;;;;;;;16.00;10.97;;;;;;;20.32;29.37;99124.56;5051358;28;20680;-77
2023/03/06 09:35:17;;;;;;;10.10;9.27;;;;;;;20.49;28.27;99125.94;5050914;28;20623;-66
2023/03/06 09:37:45;;;;;;;15.83;10.40;;;;;;;19.69;28.25;99124.91;5051159;28;20231;-66
2023/03/06 09:40:21;;;;;;;13.17;11.77;;;;;;;19.40;28.36;99121.00;5051038;28;20585;-68
2023/03/06 09:42:48;;;;;;;13.80;10.03;;;;;;;19.65;29.85;99129.97;5047940;28;20207;-67
2023/03/06 09:45:14;;;;;;;15.83;10.47;;;;;;;19.60;28.63;99126.47;5049745;28;20258;-67
2023/03/06 09:47:49;;;;;;;13.17;9.70;;;;;;;19.91;29.30;99122.81;5051773;28;20189;-67
2023/03/06 09:50:27;;;;;;;10.77;9.73;;;;;;;19.70;29.80;99119.25;5051160;28;20190;-67
2023/03/06 09:53:04;;;;;;;11.27;10.03;;;;;;;20.03;29.39;99109.91;5050376;28;20184;-68
2023/03/06 09:55:33;;;;;;;12.77;10.67;;;;;;;19.91;28.42;99120.09;5049611;28;20247;-65
2023/03/06 09:58:04;;;;;;;11.20;10.07;;;;;;;19.87;27.97;99121.72;5049944;28;20321;-64
2023/03/06 10:00:35;;;;;;;11.47;10.47;;;;;;;19.91;28.31;99114.72;5053667;28;20183;-65
2023/03/06 10:03:15;;;;;;;12.27;10.77;;;;;;;19.98;28.19;99110.69;5052286;28;20270;-65
2023/03/06 10:05:46;;;;;;;15.13;10.60;;;;;;;19.89;28.78;99109.59;5049464;28;20275;-66
2023/03/06 10:08:24;;;;;;;13.43;9.47;;;;;;;20.06;28.38;99109.38;5050053;28;20196;-65
2023/03/06 10:10:57;;;;;;;12.97;9.63;;;;;;;20.23;28.34;99104.59;5049051;28;20180;-64
2023/03/06 10:13:32;;;;;;;10.50;9.50;;;;;;;20.14;28.19;99106.97;5048906;28;20672;-67
2023/03/06 10:16:10;;;;;;;13.60;10.67;;;;;;;20.20;28.21;99105.09;5049926;28;20180;-65
2023/03/06 10:18:37;;;;;;;11.87;9.90;;;;;;;20.26;28.38;99106.75;5048731;28;20241;-64
2023/03/06 10:21:17;;;;;;;12.83;10.47;;;;;;;20.48;28.21;99097.34;5051383;28;20192;-64
2023/03/06 10:23:53;;;;;;;12.13;10.50;;;;;;;20.31;28.01;99106.75;5052442;28;20200;-65
2023/03/06 10:26:23;;;;;;;12.20;11.00;;;;;;;20.22;28.31;99092.19;5047829;28;20267;-68
2023/03/06 10:29:05;;;;;;;11.23;10.20;;;;;;;20.26;27.55;99087.88;5047466;28;20267;-66
2023/03/06 10:31:34;;;;;;;45.60;12.93;;;;;;;20.24;27.90;99095.41;5046220;28;20200;-66
2023/03/06 10:34:15;;;;;;;19.63;10.70;;;;;;;20.16;27.38;99082.44;5050586;28;20258;-65
2023/03/06 10:36:42;;;;;;;11.07;9.73;;;;;;;19.72;28.04;99092.00;5052431;28;20181;-66
2023/03/06 10:39:16;;;;;;;10.30;9.40;;;;;;;19.67;28.59;99084.72;5054141;28;20246;-66
2023/03/06 10:41:42;;;;;;;12.40;9.30;;;;;;;19.39;28.52;99084.31;5052305;28;20184;-67
2023/03/06 10:44:23;;;;;;;85.60;13.65;;;;;;;19.19;29.02;99068.06;5050365;28;20458;-66
2023/03/06 10:46:52;;;;;;;16.83;9.00;;;;;;;18.64;30.16;99073.06;5053558;28;20609;-66
2023/03/06 10:49:26;;;;;;;10.27;8.67;;;;;;;18.28;30.00;99063.88;5053371;28;20626;-65
2023/03/06 10:51:58;;;;;;;23.73;10.07;;;;;;;18.40;30.06;99064.56;5056183;28;20190;-66
2023/03/06 10:54:27;;;;;;;11.70;8.50;;;;;;;18.44;29.65;99051.41;5051630;28;20240;-66
2023/03/06 10:56:54;;;;;;;10.87;9.63;;;;;;;18.59;29.78;99052.31;5054435;28;20188;-65
2023/03/06 10:59:24;;;;;;;13.43;9.47;;;;;;;18.78;30.07;99041.97;5054136;28;20312;-65
2023/03/06 11:01:53;;;;;;;15.40;9.83;;;;;;;19.01;29.38;99042.38;5053788;28;20192;-63
2023/03/06 11:04:28;;;;;;;12.93;10.40;;;;;;;19.22;29.87;99033.34;5053548;28;20226;-64
2023/03/06 11:07:14;;;;;;;20.37;10.83;;;;;;;19.37;29.73;99040.69;5055692;28;20544;-65
2023/03/06 11:09:43;;;;;;;13.87;9.70;;;;;;;19.06;30.22;99033.50;5061242;28;20192;-64
2023/03/06 11:12:27;;;;;;;11.47;10.20;;;;;;;18.90;30.01;99035.31;5055208;28;20201;-66
2023/03/06 11:15:17;;;;;;;12.40;9.87;;;;;;;18.95;29.50;99029.16;5062231;28;20197;-64
2023/03/06 11:17:56;;;;;;;33.70;10.53;;;;;;;18.85;28.95;99015.63;5054526;28;20684;-65
2023/03/06 11:20:26;;;;;;;23.57;10.07;;;;;;;18.92;29.27;99027.81;5073879;28;20642;-64
2023/03/06 11:22:56;;;;;;;12.07;9.23;;;;;;;18.92;29.79;99016.22;5072944;28;20220;-64
2023/03/06 11:25:28;;;;;;;14.23;9.50;;;;;;;18.95;30.58;99010.31;5062781;28;20196;-64
2023/03/06 11:28:00;;;;;;;11.77;10.50;;;;;;;19.02;30.51;99002.78;5054394;28;20630;-64